sensor_id;sensor_type;location;lat;lon;timestamp;temperature;humidity
23137;DHT22;11737;50.558;7.258;2023-02-21T00:00:50;8.80;99.90
23137;DHT22;11737;50.558;7.258;2023-02-21T00:03:35;8.80;99.90
23137;DHT22;11737;50.558;7.258;2023-02-21T00:06:21;8.80;99.90
23137;DHT22;11737;50.558;7.258;2023-02-21T00:09:06;8.70;99.90
23137;DHT22;11737;50.558;7.258;2023-02-21T00:12:11;8.60;99.90
23137;DHT22;11737;50.558;7.258;2023-02-21T00:14:57;8.50;99.90
23137;DHT22;11737;50.558;7.258;2023-02-21T00:17:42;8.50;99.90
23137;DHT22;11737;50.558;7.258;2023-02-21T00:20:29;8.50;99.90
23137;DHT22;11737;50.558;7.258;2023-02-21T00:23:15;8.50;99.90
23137;DHT22;11737;50.558;7.258;2023-02-21T00:26:00;8.50;99.90
23137;DHT22;11737;50.558;7.258;2023-02-21T00:28:46;8.40;99.90
23137;DHT22;11737;50.558;7.258;2023-02-21T00:31:32;8.40;99.90
23137;DHT22;11737;50.558;7.258;2023-02-21T00:34:17;8.30;99.90
23137;DHT22;11737;50.558;7.258;2023-02-21T00:37:02;8.20;99.90
23137;DHT22;11737;50.558;7.258;2023-02-21T00:39:48;8.20;99.90
23137;DHT22;11737;50.558;7.258;2023-02-21T00:42:33;8.10;99.90
23137;DHT22;11737;50.558;7.258;2023-02-21T00:45:19;7.90;99.90
23137;DHT22;11737;50.558;7.258;2023-02-21T00:48:04;7.80;99.90
23137;DHT22;11737;50.558;7.258;2023-02-21T00:50:50;7.70;99.90
23137;DHT22;11737;50.558;7.258;2023-02-21T00:53:36;7.60;99.90
23137;DHT22;11737;50.558;7.258;2023-02-21T00:56:21;7.60;99.90
23137;DHT22;11737;50.558;7.258;2023-02-21T00:59:07;7.50;99.90
23137;DHT22;11737;50.558;7.258;2023-02-21T01:01:52;7.50;99.90
23137;DHT22;11737;50.558;7.258;2023-02-21T01:04:38;7.60;99.90
23137;DHT22;11737;50.558;7.258;2023-02-21T01:07:23;7.70;99.90
23137;DHT22;11737;50.558;7.258;2023-02-21T01:10:09;7.80;99.90
23137;DHT22;11737;50.558;7.258;2023-02-21T01:12:54;7.90;99.90
23137;DHT22;11737;50.558;7.258;2023-02-21T01:15:40;7.90;99.90
23137;DHT22;11737;50.558;7.258;2023-02-21T01:18:25;7.90;99.90
23137;DHT22;11737;50.558;7.258;2023-02-21T01:21:16;7.90;99.90
23137;DHT22;11737;50.558;7.258;2023-02-21T01:24:03;8.00;99.90
23137;DHT22;11737;50.558;7.258;2023-02-21T01:26:49;8.10;99.90
23137;DHT22;11737;50.558;7.258;2023-02-21T01:29:35;8.00;99.90
23137;DHT22;11737;50.558;7.258;2023-02-21T01:32:20;8.10;99.90
23137;DHT22;11737;50.558;7.258;2023-02-21T01:35:05;8.10;99.90
23137;DHT22;11737;50.558;7.258;2023-02-21T01:37:51;8.10;99.90
23137;DHT22;11737;50.558;7.258;2023-02-21T01:40:37;8.10;99.90
23137;DHT22;11737;50.558;7.258;2023-02-21T01:43:24;8.10;99.90
23137;DHT22;11737;50.558;7.258;2023-02-21T01:46:18;8.20;99.90
23137;DHT22;11737;50.558;7.258;2023-02-21T01:49:13;8.20;99.90
23137;DHT22;11737;50.558;7.258;2023-02-21T01:51:54;8.20;99.90
23137;DHT22;11737;50.558;7.258;2023-02-21T01:54:43;8.20;99.90
23137;DHT22;11737;50.558;7.258;2023-02-21T01:57:30;8.20;99.90
23137;DHT22;11737;50.558;7.258;2023-02-21T02:00:16;8.20;99.90
23137;DHT22;11737;50.558;7.258;2023-02-21T02:03:06;8.20;99.90
23137;DHT22;11737;50.558;7.258;2023-02-21T02:05:56;8.20;99.90
23137;DHT22;11737;50.558;7.258;2023-02-21T02:08:41;8.20;99.90
23137;DHT22;11737;50.558;7.258;2023-02-21T02:12:10;8.20;99.90
23137;DHT22;11737;50.558;7.258;2023-02-21T02:15:11;8.20;99.90
23137;DHT22;11737;50.558;7.258;2023-02-21T02:17:49;8.20;99.90
23137;DHT22;11737;50.558;7.258;2023-02-21T02:23:17;8.20;99.90
23137;DHT22;11737;50.558;7.258;2023-02-21T02:34:44;8.20;99.90
23137;DHT22;11737;50.558;7.258;2023-02-21T02:37:30;8.30;99.90
23137;DHT22;11737;50.558;7.258;2023-02-21T02:40:05;8.30;99.90
23137;DHT22;11737;50.558;7.258;2023-02-21T02:42:51;8.30;99.90
23137;DHT22;11737;50.558;7.258;2023-02-21T02:45:26;8.30;99.90
23137;DHT22;11737;50.558;7.258;2023-02-21T02:47:57;8.30;99.90
23137;DHT22;11737;50.558;7.258;2023-02-21T02:50:25;8.30;99.90
23137;DHT22;11737;50.558;7.258;2023-02-21T02:52:55;8.30;99.90
23137;DHT22;11737;50.558;7.258;2023-02-21T02:55:29;8.30;99.90
23137;DHT22;11737;50.558;7.258;2023-02-21T02:57:54;8.40;99.90
23137;DHT22;11737;50.558;7.258;2023-02-21T03:00:22;8.40;99.90
23137;DHT22;11737;50.558;7.258;2023-02-21T03:03:03;8.40;99.90
23137;DHT22;11737;50.558;7.258;2023-02-21T03:08:52;8.30;99.90
23137;DHT22;11737;50.558;7.258;2023-02-21T03:11:21;8.30;99.90
23137;DHT22;11737;50.558;7.258;2023-02-21T03:16:49;8.30;99.90
23137;DHT22;11737;50.558;7.258;2023-02-21T03:19:24;8.30;99.90
23137;DHT22;11737;50.558;7.258;2023-02-21T03:22:27;8.30;99.90
23137;DHT22;11737;50.558;7.258;2023-02-21T03:24:29;8.30;99.90
23137;DHT22;11737;50.558;7.258;2023-02-21T03:26:59;8.30;99.90
23137;DHT22;11737;50.558;7.258;2023-02-21T03:29:28;8.30;99.90
23137;DHT22;11737;50.558;7.258;2023-02-21T03:32:02;8.30;99.90
23137;DHT22;11737;50.558;7.258;2023-02-21T03:34:39;8.30;99.90
23137;DHT22;11737;50.558;7.258;2023-02-21T03:37:10;8.30;99.90
23137;DHT22;11737;50.558;7.258;2023-02-21T03:39:38;8.30;99.90
23137;DHT22;11737;50.558;7.258;2023-02-21T03:42:06;8.30;99.90
23137;DHT22;11737;50.558;7.258;2023-02-21T03:44:33;8.30;99.90
23137;DHT22;11737;50.558;7.258;2023-02-21T03:47:01;8.30;99.90
23137;DHT22;11737;50.558;7.258;2023-02-21T03:49:28;8.30;99.90
23137;DHT22;11737;50.558;7.258;2023-02-21T03:51:55;8.30;99.90
23137;DHT22;11737;50.558;7.258;2023-02-21T03:54:23;8.30;99.90
23137;DHT22;11737;50.558;7.258;2023-02-21T03:56:50;8.40;99.90
23137;DHT22;11737;50.558;7.258;2023-02-21T03:59:18;8.40;99.90
23137;DHT22;11737;50.558;7.258;2023-02-21T04:01:45;8.40;99.90
23137;DHT22;11737;50.558;7.258;2023-02-21T04:04:13;8.40;99.90
23137;DHT22;11737;50.558;7.258;2023-02-21T04:06:40;8.40;99.90
23137;DHT22;11737;50.558;7.258;2023-02-21T04:09:08;8.40;99.90
23137;DHT22;11737;50.558;7.258;2023-02-21T04:11:35;8.40;99.90
23137;DHT22;11737;50.558;7.258;2023-02-21T04:14:03;8.40;99.90
23137;DHT22;11737;50.558;7.258;2023-02-21T04:16:31;8.30;99.90
23137;DHT22;11737;50.558;7.258;2023-02-21T04:18:58;8.40;99.90
23137;DHT22;11737;50.558;7.258;2023-02-21T04:21:26;8.30;99.90
23137;DHT22;11737;50.558;7.258;2023-02-21T04:23:53;8.30;99.90
23137;DHT22;11737;50.558;7.258;2023-02-21T04:26:22;8.30;99.90
23137;DHT22;11737;50.558;7.258;2023-02-21T04:28:50;8.30;99.90
23137;DHT22;11737;50.558;7.258;2023-02-21T04:31:18;8.30;99.90
23137;DHT22;11737;50.558;7.258;2023-02-21T04:33:46;8.20;99.90
23137;DHT22;11737;50.558;7.258;2023-02-21T04:36:14;8.20;99.90
23137;DHT22;11737;50.558;7.258;2023-02-21T04:38:41;8.10;99.90
23137;DHT22;11737;50.558;7.258;2023-02-21T04:41:09;8.00;99.90
23137;DHT22;11737;50.558;7.258;2023-02-21T04:43:37;7.90;99.90
23137;DHT22;11737;50.558;7.258;2023-02-21T04:46:04;7.90;99.90
23137;DHT22;11737;50.558;7.258;2023-02-21T04:48:32;7.80;99.90
23137;DHT22;11737;50.558;7.258;2023-02-21T04:50:59;7.60;99.90
23137;DHT22;11737;50.558;7.258;2023-02-21T04:53:27;7.50;99.90
23137;DHT22;11737;50.558;7.258;2023-02-21T04:55:54;7.50;99.90
23137;DHT22;11737;50.558;7.258;2023-02-21T04:58:22;7.40;99.90
23137;DHT22;11737;50.558;7.258;2023-02-21T05:00:49;7.30;99.90
23137;DHT22;11737;50.558;7.258;2023-02-21T05:03:17;7.30;99.90
23137;DHT22;11737;50.558;7.258;2023-02-21T05:05:44;7.20;99.90
23137;DHT22;11737;50.558;7.258;2023-02-21T05:08:12;7.20;99.90
23137;DHT22;11737;50.558;7.258;2023-02-21T05:10:39;7.10;99.90
23137;DHT22;11737;50.558;7.258;2023-02-21T05:13:07;7.20;99.90
23137;DHT22;11737;50.558;7.258;2023-02-21T05:15:34;7.10;99.90
23137;DHT22;11737;50.558;7.258;2023-02-21T05:18:02;7.10;99.90
23137;DHT22;11737;50.558;7.258;2023-02-21T05:20:29;7.00;99.90
23137;DHT22;11737;50.558;7.258;2023-02-21T05:22:57;7.00;99.90
23137;DHT22;11737;50.558;7.258;2023-02-21T05:25:24;6.90;99.90
23137;DHT22;11737;50.558;7.258;2023-02-21T05:27:54;6.90;99.90
23137;DHT22;11737;50.558;7.258;2023-02-21T05:30:22;6.90;99.90
23137;DHT22;11737;50.558;7.258;2023-02-21T05:32:50;6.80;99.90
23137;DHT22;11737;50.558;7.258;2023-02-21T05:35:17;6.80;99.90
23137;DHT22;11737;50.558;7.258;2023-02-21T05:37:45;6.80;99.90
23137;DHT22;11737;50.558;7.258;2023-02-21T05:40:14;6.80;99.90
23137;DHT22;11737;50.558;7.258;2023-02-21T05:42:42;6.80;99.90
23137;DHT22;11737;50.558;7.258;2023-02-21T05:45:11;6.80;99.90
23137;DHT22;11737;50.558;7.258;2023-02-21T05:47:38;6.70;99.90
23137;DHT22;11737;50.558;7.258;2023-02-21T05:50:06;6.80;99.90
23137;DHT22;11737;50.558;7.258;2023-02-21T05:52:33;6.80;99.90
23137;DHT22;11737;50.558;7.258;2023-02-21T05:55:01;6.70;99.90
23137;DHT22;11737;50.558;7.258;2023-02-21T05:57:28;6.70;99.90
23137;DHT22;11737;50.558;7.258;2023-02-21T05:59:56;6.70;99.90
23137;DHT22;11737;50.558;7.258;2023-02-21T06:02:23;6.70;99.90
23137;DHT22;11737;50.558;7.258;2023-02-21T06:04:51;6.70;99.90
23137;DHT22;11737;50.558;7.258;2023-02-21T06:07:18;6.60;99.90
23137;DHT22;11737;50.558;7.258;2023-02-21T06:09:46;6.60;99.90
23137;DHT22;11737;50.558;7.258;2023-02-21T06:12:13;6.60;99.90
23137;DHT22;11737;50.558;7.258;2023-02-21T06:14:41;6.60;99.90
23137;DHT22;11737;50.558;7.258;2023-02-21T06:17:10;6.60;99.90
23137;DHT22;11737;50.558;7.258;2023-02-21T06:19:37;6.50;99.90
23137;DHT22;11737;50.558;7.258;2023-02-21T06:22:04;6.40;99.90
23137;DHT22;11737;50.558;7.258;2023-02-21T06:24:32;6.30;99.90
23137;DHT22;11737;50.558;7.258;2023-02-21T06:26:59;6.30;99.90
23137;DHT22;11737;50.558;7.258;2023-02-21T06:29:27;6.20;99.90
23137;DHT22;11737;50.558;7.258;2023-02-21T06:31:58;6.10;99.90
23137;DHT22;11737;50.558;7.258;2023-02-21T06:34:27;6.10;99.90
23137;DHT22;11737;50.558;7.258;2023-02-21T06:36:55;6.00;99.90
23137;DHT22;11737;50.558;7.258;2023-02-21T06:39:23;5.90;99.90
23137;DHT22;11737;50.558;7.258;2023-02-21T06:41:51;5.90;99.90
23137;DHT22;11737;50.558;7.258;2023-02-21T06:44:38;5.90;99.90
23137;DHT22;11737;50.558;7.258;2023-02-21T06:47:05;5.80;99.90
23137;DHT22;11737;50.558;7.258;2023-02-21T06:49:33;5.80;99.90
23137;DHT22;11737;50.558;7.258;2023-02-21T06:52:00;5.80;99.90
23137;DHT22;11737;50.558;7.258;2023-02-21T06:54:28;5.80;99.90
23137;DHT22;11737;50.558;7.258;2023-02-21T06:56:56;5.70;99.90
23137;DHT22;11737;50.558;7.258;2023-02-21T06:59:25;5.70;99.90
23137;DHT22;11737;50.558;7.258;2023-02-21T07:01:53;5.70;99.90
23137;DHT22;11737;50.558;7.258;2023-02-21T07:04:21;5.70;99.90
23137;DHT22;11737;50.558;7.258;2023-02-21T07:06:49;5.70;99.90
23137;DHT22;11737;50.558;7.258;2023-02-21T07:09:17;5.80;99.90
23137;DHT22;11737;50.558;7.258;2023-02-21T07:12:04;5.80;99.90
23137;DHT22;11737;50.558;7.258;2023-02-21T07:14:31;5.80;99.90
23137;DHT22;11737;50.558;7.258;2023-02-21T07:16:59;5.80;99.90
23137;DHT22;11737;50.558;7.258;2023-02-21T07:19:26;5.90;99.90
23137;DHT22;11737;50.558;7.258;2023-02-21T07:21:54;5.90;99.90
23137;DHT22;11737;50.558;7.258;2023-02-21T07:24:21;5.90;99.90
23137;DHT22;11737;50.558;7.258;2023-02-21T07:26:49;5.90;99.90
23137;DHT22;11737;50.558;7.258;2023-02-21T07:29:16;5.90;99.90
23137;DHT22;11737;50.558;7.258;2023-02-21T07:31:44;6.00;99.90
23137;DHT22;11737;50.558;7.258;2023-02-21T07:34:11;6.10;99.90
23137;DHT22;11737;50.558;7.258;2023-02-21T07:36:40;6.20;99.90
23137;DHT22;11737;50.558;7.258;2023-02-21T07:39:08;6.30;99.90
23137;DHT22;11737;50.558;7.258;2023-02-21T07:41:35;6.40;99.90
23137;DHT22;11737;50.558;7.258;2023-02-21T07:44:03;6.60;99.90
23137;DHT22;11737;50.558;7.258;2023-02-21T07:46:30;6.70;99.90
23137;DHT22;11737;50.558;7.258;2023-02-21T07:48:58;6.90;99.90
23137;DHT22;11737;50.558;7.258;2023-02-21T07:54:22;7.10;99.90
23137;DHT22;11737;50.558;7.258;2023-02-21T07:56:49;7.30;99.90
23137;DHT22;11737;50.558;7.258;2023-02-21T07:59:17;7.40;99.90
23137;DHT22;11737;50.558;7.258;2023-02-21T08:01:45;7.50;99.90
23137;DHT22;11737;50.558;7.258;2023-02-21T08:04:13;7.50;99.90
23137;DHT22;11737;50.558;7.258;2023-02-21T08:06:42;7.60;99.90
23137;DHT22;11737;50.558;7.258;2023-02-21T08:09:10;7.70;99.90
23137;DHT22;11737;50.558;7.258;2023-02-21T08:11:37;7.90;99.90
23137;DHT22;11737;50.558;7.258;2023-02-21T08:14:06;8.10;99.90
23137;DHT22;11737;50.558;7.258;2023-02-21T08:16:34;8.20;99.90
23137;DHT22;11737;50.558;7.258;2023-02-21T08:19:01;8.40;99.90
23137;DHT22;11737;50.558;7.258;2023-02-21T08:21:30;8.50;99.90
23137;DHT22;11737;50.558;7.258;2023-02-21T08:23:58;8.60;99.90
23137;DHT22;11737;50.558;7.258;2023-02-21T08:26:25;8.70;99.90
23137;DHT22;11737;50.558;7.258;2023-02-21T08:28:53;8.70;99.90
23137;DHT22;11737;50.558;7.258;2023-02-21T08:31:21;8.80;99.90
23137;DHT22;11737;50.558;7.258;2023-02-21T08:33:49;8.90;99.90
23137;DHT22;11737;50.558;7.258;2023-02-21T08:36:16;9.00;99.90
23137;DHT22;11737;50.558;7.258;2023-02-21T08:38:43;9.00;99.90
23137;DHT22;11737;50.558;7.258;2023-02-21T08:41:11;9.00;99.90
23137;DHT22;11737;50.558;7.258;2023-02-21T08:43:38;9.00;99.90
23137;DHT22;11737;50.558;7.258;2023-02-21T08:46:06;9.00;99.90
23137;DHT22;11737;50.558;7.258;2023-02-21T08:48:34;9.00;99.90
23137;DHT22;11737;50.558;7.258;2023-02-21T08:51:02;9.10;99.90
23137;DHT22;11737;50.558;7.258;2023-02-21T08:53:30;9.30;99.90
23137;DHT22;11737;50.558;7.258;2023-02-21T08:55:57;9.40;99.90
23137;DHT22;11737;50.558;7.258;2023-02-21T08:58:25;9.50;99.90
23137;DHT22;11737;50.558;7.258;2023-02-21T09:00:52;9.70;99.90
23137;DHT22;11737;50.558;7.258;2023-02-21T09:03:20;9.70;99.90
23137;DHT22;11737;50.558;7.258;2023-02-21T09:05:47;9.90;99.90
23137;DHT22;11737;50.558;7.258;2023-02-21T09:08:15;9.90;99.90
23137;DHT22;11737;50.558;7.258;2023-02-21T09:10:44;10.00;99.90
23137;DHT22;11737;50.558;7.258;2023-02-21T09:13:13;10.10;99.90
23137;DHT22;11737;50.558;7.258;2023-02-21T09:15:40;10.20;99.90
23137;DHT22;11737;50.558;7.258;2023-02-21T09:18:08;10.30;99.90
23137;DHT22;11737;50.558;7.258;2023-02-21T09:20:37;10.40;99.90
23137;DHT22;11737;50.558;7.258;2023-02-21T09:23:06;10.60;99.90
23137;DHT22;11737;50.558;7.258;2023-02-21T09:25:33;10.60;99.90
23137;DHT22;11737;50.558;7.258;2023-02-21T09:28:01;10.70;99.90
23137;DHT22;11737;50.558;7.258;2023-02-21T09:30:28;10.80;99.90
23137;DHT22;11737;50.558;7.258;2023-02-21T09:32:57;10.80;99.90
23137;DHT22;11737;50.558;7.258;2023-02-21T09:35:24;10.90;99.90
23137;DHT22;11737;50.558;7.258;2023-02-21T09:37:54;11.00;99.90
23137;DHT22;11737;50.558;7.258;2023-02-21T09:40:39;11.00;99.90
23137;DHT22;11737;50.558;7.258;2023-02-21T09:43:10;11.10;99.90
23137;DHT22;11737;50.558;7.258;2023-02-21T09:45:36;11.30;99.90
23137;DHT22;11737;50.558;7.258;2023-02-21T09:48:13;11.40;99.90
23137;DHT22;11737;50.558;7.258;2023-02-21T09:53:32;11.60;99.90
23137;DHT22;11737;50.558;7.258;2023-02-21T09:56:05;11.60;99.90
23137;DHT22;11737;50.558;7.258;2023-02-21T09:58:34;11.70;99.90
23137;DHT22;11737;50.558;7.258;2023-02-21T10:01:05;11.80;99.90
23137;DHT22;11737;50.558;7.258;2023-02-21T10:06:50;11.80;99.90
23137;DHT22;11737;50.558;7.258;2023-02-21T10:12:19;11.90;99.90
23137;DHT22;11737;50.558;7.258;2023-02-21T10:20:27;12.20;99.90
23137;DHT22;11737;50.558;7.258;2023-02-21T10:22:55;12.30;99.90
23137;DHT22;11737;50.558;7.258;2023-02-21T10:25:29;12.40;99.90
23137;DHT22;11737;50.558;7.258;2023-02-21T10:27:58;12.50;99.90
23137;DHT22;11737;50.558;7.258;2023-02-21T10:30:35;12.50;99.90
23137;DHT22;11737;50.558;7.258;2023-02-21T10:33:04;12.70;99.90
23137;DHT22;11737;50.558;7.258;2023-02-21T10:35:33;12.80;99.90
23137;DHT22;11737;50.558;7.258;2023-02-21T10:38:03;12.80;99.90
23137;DHT22;11737;50.558;7.258;2023-02-21T10:40:41;13.00;99.90
23137;DHT22;11737;50.558;7.258;2023-02-21T10:48:36;13.10;99.90
23137;DHT22;11737;50.558;7.258;2023-02-21T10:51:08;13.20;99.90
23137;DHT22;11737;50.558;7.258;2023-02-21T10:53:38;13.30;99.90
23137;DHT22;11737;50.558;7.258;2023-02-21T10:59:03;13.50;99.90
23137;DHT22;11737;50.558;7.258;2023-02-21T11:01:40;13.50;99.90
23137;DHT22;11737;50.558;7.258;2023-02-21T11:04:21;13.60;99.90
23137;DHT22;11737;50.558;7.258;2023-02-21T11:06:38;13.60;99.90
23137;DHT22;11737;50.558;7.258;2023-02-21T11:09:31;13.70;99.90
23137;DHT22;11737;50.558;7.258;2023-02-21T11:12:10;13.60;99.90
23137;DHT22;11737;50.558;7.258;2023-02-21T11:14:34;13.70;99.90
23137;DHT22;11737;50.558;7.258;2023-02-21T11:19:49;13.70;99.90
23137;DHT22;11737;50.558;7.258;2023-02-21T11:22:20;13.70;99.90
23137;DHT22;11737;50.558;7.258;2023-02-21T11:24:58;13.70;99.90
23137;DHT22;11737;50.558;7.258;2023-02-21T11:27:21;13.80;99.90
23137;DHT22;11737;50.558;7.258;2023-02-21T11:29:51;13.90;99.90
23137;DHT22;11737;50.558;7.258;2023-02-21T11:32:25;14.00;99.90
23137;DHT22;11737;50.558;7.258;2023-02-21T11:37:59;14.10;99.90
23137;DHT22;11737;50.558;7.258;2023-02-21T11:40:41;14.20;99.90
23137;DHT22;11737;50.558;7.258;2023-02-21T11:45:47;14.40;99.90
23137;DHT22;11737;50.558;7.258;2023-02-21T11:48:15;14.40;99.90
23137;DHT22;11737;50.558;7.258;2023-02-21T11:50:46;14.40;99.90
23137;DHT22;11737;50.558;7.258;2023-02-21T11:56:31;14.50;99.90
23137;DHT22;11737;50.558;7.258;2023-02-21T11:59:06;14.40;99.90
23137;DHT22;11737;50.558;7.258;2023-02-21T12:01:42;14.50;99.90
23137;DHT22;11737;50.558;7.258;2023-02-21T12:04:35;14.50;99.90
23137;DHT22;11737;50.558;7.258;2023-02-21T12:09:55;14.60;99.90
23137;DHT22;11737;50.558;7.258;2023-02-21T12:12:32;14.60;99.90
23137;DHT22;11737;50.558;7.258;2023-02-21T12:15:13;14.70;99.90
23137;DHT22;11737;50.558;7.258;2023-02-21T12:23:45;14.90;99.90
23137;DHT22;11737;50.558;7.258;2023-02-21T12:26:17;15.00;99.90
23137;DHT22;11737;50.558;7.258;2023-02-21T12:29:08;15.20;99.90
23137;DHT22;11737;50.558;7.258;2023-02-21T12:31:51;15.30;99.90
23137;DHT22;11737;50.558;7.258;2023-02-21T12:37:13;15.40;99.90
23137;DHT22;11737;50.558;7.258;2023-02-21T12:48:11;15.70;99.90
23137;DHT22;11737;50.558;7.258;2023-02-21T12:50:41;15.80;99.90
23137;DHT22;11737;50.558;7.258;2023-02-21T12:53:12;15.90;99.90
23137;DHT22;11737;50.558;7.258;2023-02-21T12:55:42;15.90;99.90
23137;DHT22;11737;50.558;7.258;2023-02-21T13:01:10;16.10;99.90
23137;DHT22;11737;50.558;7.258;2023-02-21T13:06:37;16.20;99.90
23137;DHT22;11737;50.558;7.258;2023-02-21T13:12:13;16.30;99.90
23137;DHT22;11737;50.558;7.258;2023-02-21T13:14:56;16.40;99.90
23137;DHT22;11737;50.558;7.258;2023-02-21T13:17:25;16.40;99.90
23137;DHT22;11737;50.558;7.258;2023-02-21T13:19:58;16.40;99.90
23137;DHT22;11737;50.558;7.258;2023-02-21T13:22:25;16.50;99.90
23137;DHT22;11737;50.558;7.258;2023-02-21T13:28:19;16.60;99.90
23137;DHT22;11737;50.558;7.258;2023-02-21T13:30:56;16.60;99.90
23137;DHT22;11737;50.558;7.258;2023-02-21T13:33:34;16.70;99.90
23137;DHT22;11737;50.558;7.258;2023-02-21T13:35:59;16.70;99.90
23137;DHT22;11737;50.558;7.258;2023-02-21T13:38:28;16.70;99.90
23137;DHT22;11737;50.558;7.258;2023-02-21T13:43:52;16.80;99.90
23137;DHT22;11737;50.558;7.258;2023-02-21T13:57:49;16.90;99.90
23137;DHT22;11737;50.558;7.258;2023-02-21T14:08:34;17.00;99.90
23137;DHT22;11737;50.558;7.258;2023-02-21T14:13:49;17.10;99.90
23137;DHT22;11737;50.558;7.258;2023-02-21T14:16:19;17.10;99.90
23137;DHT22;11737;50.558;7.258;2023-02-21T14:21:47;17.20;99.90
23137;DHT22;11737;50.558;7.258;2023-02-21T14:24:20;17.20;99.90
23137;DHT22;11737;50.558;7.258;2023-02-21T14:26:54;17.20;99.90
23137;DHT22;11737;50.558;7.258;2023-02-21T14:29:39;17.20;99.90
23137;DHT22;11737;50.558;7.258;2023-02-21T14:37:50;17.20;99.90
23137;DHT22;11737;50.558;7.258;2023-02-21T14:43:05;17.20;99.90
23137;DHT22;11737;50.558;7.258;2023-02-21T14:54:28;17.30;99.90
23137;DHT22;11737;50.558;7.258;2023-02-21T15:00:24;17.20;99.90
23137;DHT22;11737;50.558;7.258;2023-02-21T15:03:12;17.20;99.90
23137;DHT22;11737;50.558;7.258;2023-02-21T15:05:52;17.20;99.90
23137;DHT22;11737;50.558;7.258;2023-02-21T15:08:22;17.20;99.90
23137;DHT22;11737;50.558;7.258;2023-02-21T15:10:52;17.20;99.90
23137;DHT22;11737;50.558;7.258;2023-02-21T15:13:30;17.20;99.90
23137;DHT22;11737;50.558;7.258;2023-02-21T15:16:01;17.20;99.90
23137;DHT22;11737;50.558;7.258;2023-02-21T15:18:31;17.10;99.90
23137;DHT22;11737;50.558;7.258;2023-02-21T15:23:42;17.30;99.90
23137;DHT22;11737;50.558;7.258;2023-02-21T15:29:14;17.80;99.90
23137;DHT22;11737;50.558;7.258;2023-02-21T15:31:53;18.10;99.90
23137;DHT22;11737;50.558;7.258;2023-02-21T15:34:34;18.40;99.90
23137;DHT22;11737;50.558;7.258;2023-02-21T15:37:15;18.60;99.90
23137;DHT22;11737;50.558;7.258;2023-02-21T15:39:44;18.80;99.90
23137;DHT22;11737;50.558;7.258;2023-02-21T15:42:13;19.00;99.90
23137;DHT22;11737;50.558;7.258;2023-02-21T15:44:48;19.10;99.90
23137;DHT22;11737;50.558;7.258;2023-02-21T15:47:19;19.20;99.90
23137;DHT22;11737;50.558;7.258;2023-02-21T15:52:35;19.50;99.90
23137;DHT22;11737;50.558;7.258;2023-02-21T15:58:16;19.60;99.90
23137;DHT22;11737;50.558;7.258;2023-02-21T16:00:46;19.60;99.90
23137;DHT22;11737;50.558;7.258;2023-02-21T16:06:29;19.60;99.90
23137;DHT22;11737;50.558;7.258;2023-02-21T16:09:00;19.30;99.90
23137;DHT22;11737;50.558;7.258;2023-02-21T16:11:48;18.90;99.90
23137;DHT22;11737;50.558;7.258;2023-02-21T16:17:20;18.30;99.90
23137;DHT22;11737;50.558;7.258;2023-02-21T16:19:51;17.90;99.90
23137;DHT22;11737;50.558;7.258;2023-02-21T16:22:36;17.40;99.90
23137;DHT22;11737;50.558;7.258;2023-02-21T16:25:16;17.10;99.90
23137;DHT22;11737;50.558;7.258;2023-02-21T16:30:35;16.40;99.90
23137;DHT22;11737;50.558;7.258;2023-02-21T16:33:04;16.10;99.90
23137;DHT22;11737;50.558;7.258;2023-02-21T16:35:33;15.90;99.90
23137;DHT22;11737;50.558;7.258;2023-02-21T16:38:00;15.70;99.90
23137;DHT22;11737;50.558;7.258;2023-02-21T16:40:30;15.40;99.90
23137;DHT22;11737;50.558;7.258;2023-02-21T16:43:00;15.20;99.90
23137;DHT22;11737;50.558;7.258;2023-02-21T16:45:29;14.90;99.90
23137;DHT22;11737;50.558;7.258;2023-02-21T16:48:05;14.70;99.90
23137;DHT22;11737;50.558;7.258;2023-02-21T16:50:39;14.50;99.90
23137;DHT22;11737;50.558;7.258;2023-02-21T16:53:09;14.40;99.90
23137;DHT22;11737;50.558;7.258;2023-02-21T16:55:38;14.30;99.90
23137;DHT22;11737;50.558;7.258;2023-02-21T16:58:14;14.10;99.90
23137;DHT22;11737;50.558;7.258;2023-02-21T17:00:36;14.00;99.90
23137;DHT22;11737;50.558;7.258;2023-02-21T17:03:04;13.90;99.90
23137;DHT22;11737;50.558;7.258;2023-02-21T17:05:31;13.80;99.90
23137;DHT22;11737;50.558;7.258;2023-02-21T17:08:01;13.70;99.90
23137;DHT22;11737;50.558;7.258;2023-02-21T17:10:30;13.60;99.90
23137;DHT22;11737;50.558;7.258;2023-02-21T17:12:58;13.50;99.90
23137;DHT22;11737;50.558;7.258;2023-02-21T17:15:27;13.50;99.90
23137;DHT22;11737;50.558;7.258;2023-02-21T17:17:55;13.40;99.90
23137;DHT22;11737;50.558;7.258;2023-02-21T17:20:22;13.40;99.90
23137;DHT22;11737;50.558;7.258;2023-02-21T17:25:39;13.30;99.90
23137;DHT22;11737;50.558;7.258;2023-02-21T17:28:06;13.20;99.90
23137;DHT22;11737;50.558;7.258;2023-02-21T17:30:34;13.20;99.90
23137;DHT22;11737;50.558;7.258;2023-02-21T17:33:01;13.20;99.90
23137;DHT22;11737;50.558;7.258;2023-02-21T17:35:29;13.20;99.90
23137;DHT22;11737;50.558;7.258;2023-02-21T17:37:56;13.20;99.90
23137;DHT22;11737;50.558;7.258;2023-02-21T17:40:26;13.20;99.90
23137;DHT22;11737;50.558;7.258;2023-02-21T17:42:54;13.20;99.90
23137;DHT22;11737;50.558;7.258;2023-02-21T17:45:23;13.10;99.90
23137;DHT22;11737;50.558;7.258;2023-02-21T17:47:52;12.90;99.90
23137;DHT22;11737;50.558;7.258;2023-02-21T17:50:22;12.80;99.90
23137;DHT22;11737;50.558;7.258;2023-02-21T17:52:51;12.70;99.90
23137;DHT22;11737;50.558;7.258;2023-02-21T17:55:21;12.60;99.90
23137;DHT22;11737;50.558;7.258;2023-02-21T17:57:51;12.50;99.90
23137;DHT22;11737;50.558;7.258;2023-02-21T18:00:21;12.40;99.90
23137;DHT22;11737;50.558;7.258;2023-02-21T18:02:55;12.30;99.90
23137;DHT22;11737;50.558;7.258;2023-02-21T18:05:20;12.20;99.90
23137;DHT22;11737;50.558;7.258;2023-02-21T18:07:49;12.10;99.90
23137;DHT22;11737;50.558;7.258;2023-02-21T18:10:19;12.00;99.90
23137;DHT22;11737;50.558;7.258;2023-02-21T18:12:47;12.00;99.90
23137;DHT22;11737;50.558;7.258;2023-02-21T18:15:15;11.90;99.90
23137;DHT22;11737;50.558;7.258;2023-02-21T18:17:43;11.90;99.90
23137;DHT22;11737;50.558;7.258;2023-02-21T18:20:10;11.90;99.90
23137;DHT22;11737;50.558;7.258;2023-02-21T18:22:39;11.80;99.90
23137;DHT22;11737;50.558;7.258;2023-02-21T18:25:07;11.80;99.90
23137;DHT22;11737;50.558;7.258;2023-02-21T18:27:35;11.80;99.90
23137;DHT22;11737;50.558;7.258;2023-02-21T18:30:03;11.80;99.90
23137;DHT22;11737;50.558;7.258;2023-02-21T18:32:31;11.70;99.90
23137;DHT22;11737;50.558;7.258;2023-02-21T18:34:59;11.70;99.90
23137;DHT22;11737;50.558;7.258;2023-02-21T18:37:27;11.70;99.90
23137;DHT22;11737;50.558;7.258;2023-02-21T18:39:54;11.60;99.90
23137;DHT22;11737;50.558;7.258;2023-02-21T18:42:22;11.50;99.90
23137;DHT22;11737;50.558;7.258;2023-02-21T18:44:51;11.50;99.90
23137;DHT22;11737;50.558;7.258;2023-02-21T18:47:19;11.60;99.90
23137;DHT22;11737;50.558;7.258;2023-02-21T18:49:47;11.60;99.90
23137;DHT22;11737;50.558;7.258;2023-02-21T18:52:15;11.70;99.90